createdAt,value
2023-05-03T00:01:43.999Z,0.40
2023-05-03T00:04:14.928Z,0.40
2023-05-03T00:06:44.960Z,0.80
2023-05-03T00:09:14.415Z,0.50
2023-05-03T00:11:42.734Z,1.30
2023-05-03T00:14:12.673Z,0.40
2023-05-03T00:16:41.045Z,0.50
2023-05-03T00:19:17.644Z,0.83
2023-05-03T00:21:52.919Z,0.37
2023-05-03T00:24:21.201Z,0.50
2023-05-03T00:26:49.525Z,2.33
2023-05-03T00:29:21.202Z,0.90
2023-05-03T00:31:49.520Z,0.80
2023-05-03T00:34:17.908Z,1.10
2023-05-03T00:36:46.226Z,3.57
2023-05-03T00:39:14.562Z,1.53
2023-05-03T00:41:42.911Z,0.90
2023-05-03T00:44:11.223Z,0.90
2023-05-03T00:54:10.988Z,1.70
2023-05-03T00:59:35.424Z,1.00
2023-05-03T01:02:04.468Z,1.80
2023-05-03T01:04:32.919Z,1.07
2023-05-03T01:07:17.973Z,0.73
2023-05-03T01:09:48.349Z,2.07
2023-05-03T01:12:20.265Z,0.73
2023-05-03T01:14:49.398Z,1.30
2023-05-03T01:17:17.658Z,1.00
2023-05-03T01:19:47.155Z,0.40
2023-05-03T01:22:18.014Z,2.47
2023-05-03T01:24:49.388Z,1.10
2023-05-03T01:27:19.351Z,0.90
2023-05-03T01:29:47.631Z,2.17
2023-05-03T01:32:16.910Z,0.50
2023-05-03T01:34:48.327Z,0.40
2023-05-03T01:37:16.693Z,0.30
2023-05-03T01:39:50.326Z,0.50
2023-05-03T01:42:20.565Z,1.13
2023-05-03T01:44:49.048Z,0.50
2023-05-03T01:47:17.349Z,0.67
2023-05-03T01:49:45.618Z,0.57
2023-05-03T01:52:13.884Z,0.30
2023-05-03T01:54:42.175Z,0.97
2023-05-03T01:57:10.763Z,1.07
2023-05-03T01:59:40.397Z,0.60
2023-05-03T02:02:08.660Z,0.60
2023-05-03T02:04:37.208Z,0.67
2023-05-03T02:07:08.077Z,0.50
2023-05-03T02:09:36.393Z,0.97
2023-05-03T02:12:04.766Z,1.17
2023-05-03T02:14:33.129Z,3.40
2023-05-03T02:17:03.277Z,0.20
2023-05-03T02:19:31.778Z,1.67
2023-05-03T02:22:00.068Z,0.60
2023-05-03T02:24:29.654Z,3.77
2023-05-03T02:26:57.956Z,1.33
2023-05-03T02:29:26.232Z,0.30
2023-05-03T02:31:54.986Z,0.60
2023-05-03T02:34:24.649Z,0.50
2023-05-03T02:36:52.954Z,0.40
2023-05-03T02:39:21.249Z,1.07
2023-05-03T02:41:49.513Z,0.70
2023-05-03T02:44:17.755Z,0.63
2023-05-03T02:46:46.203Z,0.73
2023-05-03T02:49:14.513Z,1.17
2023-05-03T02:51:44.293Z,0.47
2023-05-03T02:54:12.601Z,0.33
2023-05-03T02:56:40.875Z,0.50
2023-05-03T02:59:09.185Z,3.50
2023-05-03T03:01:37.503Z,0.30
2023-05-03T03:04:06.305Z,4.07
2023-05-03T03:06:34.663Z,1.67
2023-05-03T03:09:04.906Z,0.40
2023-05-03T03:11:33.205Z,0.50
2023-05-03T03:14:01.454Z,0.27
2023-05-03T03:16:29.845Z,1.13
2023-05-03T03:18:58.154Z,0.23
2023-05-03T03:21:29.139Z,0.37
2023-05-03T03:23:57.470Z,0.37
2023-05-03T03:26:27.150Z,0.50
2023-05-03T03:28:55.440Z,4.60
2023-05-03T03:31:25.743Z,0.50
2023-05-03T03:33:54.044Z,0.50
2023-05-03T03:36:22.354Z,0.37
2023-05-03T03:38:50.649Z,1.63
2023-05-03T03:41:18.904Z,0.60
2023-05-03T03:43:48.534Z,0.30
2023-05-03T03:46:16.877Z,0.30
2023-05-03T03:48:45.211Z,0.50
2023-05-03T03:51:13.511Z,0.37
2023-05-03T03:53:41.954Z,0.70
2023-05-03T03:56:10.286Z,0.90
2023-05-03T03:58:38.574Z,0.40
2023-05-03T04:01:08.572Z,0.60
2023-05-03T04:03:37.188Z,0.30
2023-05-03T04:06:05.719Z,0.20
2023-05-03T04:08:34.061Z,0.30
2023-05-03T04:11:03.734Z,0.47
2023-05-03T04:13:32.049Z,0.50
2023-05-03T04:16:02.149Z,0.30
2023-05-03T04:18:32.938Z,0.70
2023-05-03T04:21:01.256Z,2.53
2023-05-03T04:23:29.527Z,0.63
2023-05-03T04:25:57.961Z,0.60
2023-05-03T04:28:27.048Z,2.80
2023-05-03T04:30:55.373Z,0.53
2023-05-03T04:33:23.716Z,0.77
2023-05-03T04:35:53.365Z,0.40
2023-05-03T04:38:22.537Z,0.43
2023-05-03T04:40:51.084Z,0.60
2023-05-03T04:43:19.560Z,0.30
2023-05-03T04:45:48.072Z,2.13
2023-05-03T04:48:18.185Z,1.60
2023-05-03T04:50:46.568Z,0.50
2023-05-03T04:53:16.626Z,1.20
2023-05-03T04:55:44.931Z,0.63
2023-05-03T04:58:13.216Z,0.50
2023-05-03T05:00:43.167Z,1.33
2023-05-03T05:03:11.815Z,0.60
2023-05-03T05:05:40.339Z,0.70
2023-05-03T05:08:08.656Z,0.40
2023-05-03T05:10:40.027Z,0.50
2023-05-03T05:13:08.531Z,0.63
2023-05-03T05:15:36.904Z,0.83
2023-05-03T05:18:05.249Z,0.87
2023-05-03T05:20:33.545Z,0.40
2023-05-03T05:23:01.827Z,0.50
2023-05-03T05:25:30.133Z,0.67
2023-05-03T05:27:59.777Z,0.30
2023-05-03T05:30:28.111Z,0.40
2023-05-03T05:32:56.468Z,0.57
2023-05-03T05:35:24.861Z,0.53
2023-05-03T05:37:53.134Z,0.30
2023-05-03T05:40:21.554Z,0.53
2023-05-03T05:42:50.155Z,2.10
2023-05-03T05:45:19.996Z,0.50
2023-05-03T05:47:48.398Z,0.40
2023-05-03T05:50:18.750Z,0.60
2023-05-03T05:52:47.682Z,1.80
2023-05-03T05:55:16.299Z,0.40
2023-05-03T05:57:44.564Z,2.40
2023-05-03T06:00:15.496Z,2.33
2023-05-03T06:02:45.472Z,0.50
2023-05-03T06:05:13.930Z,0.60
2023-05-03T06:07:42.270Z,0.77
2023-05-03T06:10:10.858Z,0.73
2023-05-03T06:12:39.130Z,0.30
2023-05-03T06:15:08.123Z,0.40
2023-05-03T06:17:36.533Z,0.40
2023-05-03T06:20:06.969Z,0.87
2023-05-03T06:22:35.491Z,0.97
2023-05-03T06:25:03.836Z,0.40
2023-05-03T06:27:32.210Z,0.40
2023-05-03T06:30:00.782Z,1.10
2023-05-03T06:32:29.398Z,0.43
2023-05-03T06:34:59.521Z,0.77
2023-05-03T06:37:29.380Z,1.80
2023-05-03T06:39:57.852Z,0.60
2023-05-03T06:42:26.157Z,0.57
2023-05-03T06:44:54.473Z,0.43
2023-05-03T06:47:22.751Z,1.13
2023-05-03T06:49:51.061Z,0.83
2023-05-03T06:52:19.376Z,1.90
2023-05-03T06:54:49.052Z,0.37
2023-05-03T06:57:17.295Z,0.63
2023-05-03T06:59:45.791Z,1.20
2023-05-03T07:02:14.116Z,0.30
2023-05-03T07:04:42.510Z,0.63
2023-05-03T07:07:10.984Z,1.70
2023-05-03T07:09:43.236Z,3.40
2023-05-03T07:12:13.458Z,1.67
2023-05-03T07:14:41.819Z,0.37
2023-05-03T07:17:10.147Z,0.80
2023-05-03T07:19:38.450Z,2.57
2023-05-03T07:22:07.127Z,1.17
2023-05-03T07:24:35.527Z,0.83
2023-05-03T07:27:03.845Z,0.83
2023-05-03T07:29:33.765Z,0.30
2023-05-03T07:32:02.051Z,1.40
2023-05-03T07:34:30.600Z,0.83
2023-05-03T07:36:58.912Z,0.43
2023-05-03T07:39:27.222Z,0.87
2023-05-03T07:41:55.894Z,1.13
2023-05-03T07:44:24.893Z,0.97
2023-05-03T07:46:54.519Z,1.07
2023-05-03T07:49:22.834Z,0.50
2023-05-03T07:51:51.108Z,1.93
2023-05-03T07:54:19.438Z,3.13
2023-05-03T07:56:47.865Z,0.60
2023-05-03T07:59:16.195Z,2.00
2023-05-03T08:01:44.757Z,3.20
2023-05-03T08:04:14.846Z,0.60
2023-05-03T08:06:43.672Z,0.50
2023-05-03T08:09:12.650Z,0.50
2023-05-03T08:11:42.511Z,1.10
2023-05-03T08:14:12.353Z,0.50
2023-05-03T08:16:41.547Z,2.53
2023-05-03T08:19:09.854Z,0.33
2023-05-03T08:21:39.538Z,0.47
2023-05-03T08:24:08.422Z,2.00
2023-05-03T08:26:36.955Z,2.47
2023-05-03T08:29:05.448Z,0.67
2023-05-03T08:31:33.776Z,2.50
2023-05-03T08:34:03.729Z,4.73
2023-05-03T08:36:32.885Z,1.37
2023-05-03T08:39:03.845Z,2.90
2023-05-03T08:41:32.413Z,0.30
2023-05-03T08:44:00.947Z,0.30
2023-05-03T08:46:29.404Z,0.50
2023-05-03T08:48:57.774Z,1.93
2023-05-03T08:51:27.733Z,1.17
2023-05-03T08:53:56.085Z,1.67
2023-05-03T08:56:27.706Z,0.40
2023-05-03T08:58:56.460Z,0.37
2023-05-03T09:01:24.747Z,0.50
2023-05-03T09:03:53.448Z,1.17
2023-05-03T09:06:22.259Z,0.50
2023-05-03T09:08:50.708Z,0.60
2023-05-03T09:11:22.454Z,0.53
2023-05-03T09:13:52.853Z,0.40
2023-05-03T09:16:24.650Z,0.40
2023-05-03T09:18:59.680Z,0.40
2023-05-03T09:21:28.035Z,0.53
2023-05-03T09:23:56.346Z,0.60
2023-05-03T09:26:31.187Z,0.40
2023-05-03T09:29:01.460Z,0.63
2023-05-03T09:31:29.890Z,4.10
2023-05-03T09:33:58.208Z,0.47
2023-05-03T09:36:27.688Z,1.73
2023-05-03T09:38:56.191Z,3.53
2023-05-03T09:41:30.851Z,0.50
2023-05-03T09:44:02.993Z,1.53
2023-05-03T09:46:33.325Z,0.40
2023-05-03T09:49:01.853Z,0.50
2023-05-03T09:51:30.154Z,1.60
2023-05-03T09:53:58.974Z,0.53
2023-05-03T09:56:27.541Z,0.40
2023-05-03T09:58:55.905Z,0.50
2023-05-03T10:01:24.578Z,0.57
2023-05-03T10:03:54.518Z,1.53
2023-05-03T10:06:25.156Z,0.30
2023-05-03T10:08:55.003Z,0.63
2023-05-03T10:11:23.943Z,0.50
2023-05-03T10:13:52.256Z,0.47
2023-05-03T10:16:22.691Z,0.50
2023-05-03T10:18:53.355Z,0.50
2023-05-03T10:21:39.172Z,0.77
2023-05-03T10:24:16.160Z,1.77
2023-05-03T10:26:44.772Z,0.40
2023-05-03T10:29:33.369Z,0.40
2023-05-03T10:32:01.817Z,0.67
2023-05-03T10:34:32.925Z,2.33
2023-05-03T10:37:03.354Z,0.40
2023-05-03T10:39:33.000Z,0.43
2023-05-03T10:42:01.559Z,0.47
2023-05-03T10:44:30.667Z,0.93
2023-05-03T10:46:58.975Z,1.80
2023-05-03T10:49:27.561Z,1.07
2023-05-03T10:51:56.643Z,5.10
2023-05-03T10:54:25.977Z,0.50
2023-05-03T10:56:56.465Z,0.70
2023-05-03T10:59:25.895Z,0.50
2023-05-03T11:01:54.431Z,2.93
2023-05-03T11:04:33.720Z,0.80
2023-05-03T11:07:02.110Z,1.60
2023-05-03T11:09:33.620Z,1.10
2023-05-03T11:12:06.628Z,0.40
2023-05-03T11:14:34.937Z,0.40
2023-05-03T11:17:03.274Z,1.40
2023-05-03T11:19:31.573Z,0.60
2023-05-03T11:21:59.893Z,0.50
2023-05-03T11:24:28.985Z,0.60
2023-05-03T11:26:57.732Z,3.20
2023-05-03T11:29:27.853Z,0.73
2023-05-03T11:31:57.388Z,0.40
2023-05-03T11:34:25.714Z,4.80
2023-05-03T11:36:54.053Z,2.23
2023-05-03T11:39:22.422Z,0.50
2023-05-03T11:42:04.372Z,1.47
2023-05-03T11:44:34.349Z,1.73
2023-05-03T11:47:02.867Z,0.67
2023-05-03T11:49:31.586Z,0.63
2023-05-03T11:52:00.050Z,1.37
2023-05-03T11:54:28.680Z,3.80
2023-05-03T11:56:57.938Z,0.67
2023-05-03T11:59:37.125Z,2.33
2023-05-03T12:02:05.973Z,0.87
2023-05-03T12:04:35.132Z,0.70
2023-05-03T12:07:04.865Z,0.80
2023-05-03T12:09:34.428Z,1.03
2023-05-03T12:12:06.236Z,0.57
2023-05-03T12:14:50.491Z,0.60
2023-05-03T12:17:32.928Z,0.93
2023-05-03T12:22:51.268Z,1.97
2023-05-03T12:25:21.710Z,1.70
2023-05-03T12:28:12.710Z,4.00
2023-05-03T12:30:45.622Z,0.50
2023-05-03T12:33:21.745Z,0.50
2023-05-03T12:35:53.512Z,0.73
2023-05-03T12:38:23.908Z,2.27
2023-05-03T12:40:54.205Z,1.70
2023-05-03T12:43:22.757Z,0.40
2023-05-03T12:46:01.402Z,0.90
2023-05-03T12:48:39.607Z,1.20
2023-05-03T12:51:19.257Z,0.80
2023-05-03T12:53:54.524Z,0.80
2023-05-03T12:56:24.831Z,3.23
2023-05-03T12:59:07.533Z,0.40
2023-05-03T13:06:46.861Z,0.60
2023-05-03T13:09:21.216Z,0.97
2023-05-03T13:11:51.113Z,0.50
2023-05-03T13:14:19.576Z,1.33
2023-05-03T13:16:49.126Z,1.03
2023-05-03T13:19:18.906Z,0.83
2023-05-03T13:21:49.327Z,0.60
2023-05-03T13:24:17.741Z,0.70
2023-05-03T13:26:46.515Z,1.10
2023-05-03T13:29:14.851Z,0.50
2023-05-03T13:31:43.189Z,0.80
2023-05-03T13:34:11.605Z,2.00
2023-05-03T13:36:41.299Z,0.57
2023-05-03T13:39:10.527Z,0.70
2023-05-03T13:41:40.854Z,1.50
2023-05-03T13:44:09.533Z,0.60
2023-05-03T13:46:38.273Z,4.00
2023-05-03T13:49:07.349Z,0.53
2023-05-03T13:51:35.896Z,1.30
2023-05-03T13:54:05.933Z,0.67
2023-05-03T13:56:34.279Z,1.90
2023-05-03T13:59:02.677Z,1.07
2023-05-03T14:01:31.073Z,1.70
2023-05-03T14:03:59.880Z,2.53
2023-05-03T14:06:29.910Z,3.37
2023-05-03T14:09:01.683Z,2.00
2023-05-03T14:11:31.938Z,1.37
2023-05-03T14:14:00.821Z,0.77
2023-05-03T14:19:00.420Z,0.50
2023-05-03T14:21:31.794Z,0.40
2023-05-03T14:24:00.353Z,2.67
2023-05-03T14:26:29.488Z,0.53
2023-05-03T14:29:00.571Z,9.50
2023-05-03T14:31:29.066Z,0.60
2023-05-03T14:33:57.558Z,1.00
2023-05-03T14:36:26.941Z,1.37
2023-05-03T14:38:55.257Z,0.97
2023-05-03T14:41:23.535Z,9.50
2023-05-03T14:43:51.885Z,2.63
2023-05-03T14:46:21.694Z,0.63
2023-05-03T14:48:50.063Z,0.70
2023-05-03T14:51:18.972Z,0.90
2023-05-03T14:53:47.252Z,0.60
2023-05-03T14:56:15.563Z,0.80
2023-05-03T14:58:43.983Z,7.83
2023-05-03T15:01:19.109Z,1.07
2023-05-03T15:03:48.845Z,0.47
2023-05-03T15:06:17.122Z,1.63
2023-05-03T15:08:45.552Z,1.20
2023-05-03T15:11:13.899Z,2.73
2023-05-03T15:13:42.276Z,0.70
2023-05-03T15:16:11.392Z,1.80
2023-05-03T15:18:39.715Z,0.70
2023-05-03T15:21:09.396Z,0.70
2023-05-03T15:23:37.745Z,1.30
2023-05-03T15:26:06.431Z,0.60
2023-05-03T15:28:34.773Z,0.80
2023-05-03T15:31:03.091Z,0.83
2023-05-03T15:33:31.470Z,1.90
2023-05-03T15:36:00.018Z,0.60
2023-05-03T15:38:29.661Z,3.30
2023-05-03T15:40:58.034Z,0.43
2023-05-03T15:43:26.304Z,1.80
2023-05-03T15:45:54.596Z,0.60
2023-05-03T15:48:22.964Z,2.30
2023-05-03T15:50:51.722Z,2.07
2023-05-03T15:53:20.004Z,1.33
2023-05-03T15:55:49.795Z,1.03
2023-05-03T15:58:19.221Z,0.80
2023-05-03T16:00:48.363Z,0.80
2023-05-03T16:03:16.729Z,0.50
2023-05-03T16:05:45.349Z,1.07
2023-05-03T16:08:13.675Z,0.70
2023-05-03T16:10:42.863Z,3.67
2023-05-03T16:13:12.635Z,0.93
2023-05-03T16:15:41.034Z,2.27
2023-05-03T16:18:09.447Z,0.53
2023-05-03T16:20:37.866Z,1.90
2023-05-03T16:23:06.172Z,0.67
2023-05-03T16:25:34.579Z,0.70
2023-05-03T16:28:03.272Z,1.83
2023-05-03T16:30:33.665Z,0.50
2023-05-03T16:33:02.384Z,0.70
2023-05-03T16:35:30.697Z,1.60
2023-05-03T16:37:59.041Z,0.50
2023-05-03T16:40:27.391Z,0.70
2023-05-03T16:42:57.692Z,0.60
2023-05-03T16:45:26.061Z,36.63
2023-05-03T16:47:55.830Z,41.60
2023-05-03T16:50:24.237Z,29.60
2023-05-03T16:52:52.871Z,18.80
2023-05-03T16:55:23.104Z,14.93
2023-05-03T16:57:51.377Z,13.93
2023-05-03T17:00:20.914Z,10.77
2023-05-03T17:02:49.418Z,9.70
2023-05-03T17:05:20.366Z,8.33
2023-05-03T17:07:48.664Z,6.83
2023-05-03T17:10:16.962Z,8.37
2023-05-03T17:12:45.547Z,5.90
2023-05-03T17:15:13.963Z,6.30
2023-05-03T17:17:42.416Z,9.63
2023-05-03T17:20:12.845Z,3.40
2023-05-03T17:22:42.580Z,5.17
2023-05-03T17:25:11.224Z,3.20
2023-05-03T17:27:39.552Z,5.93
2023-05-03T17:30:09.634Z,3.60
2023-05-03T17:32:38.119Z,2.50
2023-05-03T17:35:06.833Z,2.50
2023-05-03T17:37:35.172Z,2.20
2023-05-03T17:40:06.569Z,1.33
2023-05-03T17:42:35.080Z,4.33
2023-05-03T17:45:04.213Z,4.03
2023-05-03T17:47:32.565Z,2.50
2023-05-03T17:50:01.158Z,2.00
2023-05-03T17:52:29.464Z,3.60
2023-05-03T17:54:58.560Z,1.17
2023-05-03T17:57:28.232Z,2.03
2023-05-03T17:59:56.560Z,1.50
2023-05-03T18:02:24.893Z,3.90
2023-05-03T18:04:54.449Z,1.57
2023-05-03T18:07:23.275Z,1.00
2023-05-03T18:09:52.182Z,1.47
2023-05-03T18:12:20.606Z,0.80
2023-05-03T18:14:50.677Z,1.33
2023-05-03T18:17:18.977Z,0.90
2023-05-03T18:19:47.271Z,4.53
2023-05-03T18:22:15.590Z,2.40
2023-05-03T18:24:43.860Z,3.87
2023-05-03T18:27:13.511Z,0.70
2023-05-03T18:29:41.931Z,1.00
2023-05-03T18:32:11.756Z,0.70
2023-05-03T18:34:40.334Z,1.13
2023-05-03T18:37:08.646Z,1.33
2023-05-03T18:39:36.966Z,1.63
2023-05-03T18:42:05.450Z,1.20
2023-05-03T18:44:33.939Z,2.67
2023-05-03T18:47:02.427Z,2.40
2023-05-03T18:49:32.118Z,0.80
2023-05-03T18:52:00.410Z,0.67
2023-05-03T18:54:28.688Z,0.73
2023-05-03T18:56:57.018Z,0.60
2023-05-03T18:59:25.323Z,1.20
2023-05-03T19:01:53.645Z,0.90
2023-05-03T19:04:21.931Z,0.87
2023-05-03T19:06:51.640Z,3.67
2023-05-03T19:09:20.043Z,0.90
2023-05-03T19:11:49.126Z,1.17
2023-05-03T19:14:17.843Z,1.63
2023-05-03T19:16:46.238Z,4.13
2023-05-03T19:19:14.599Z,1.37
2023-05-03T19:21:43.823Z,1.00
2023-05-03T19:24:15.162Z,1.97
2023-05-03T19:26:43.484Z,2.27
2023-05-03T19:29:11.869Z,1.17
2023-05-03T19:31:40.378Z,4.23
2023-05-03T19:34:11.168Z,2.70
2023-05-03T19:36:39.557Z,1.83
2023-05-03T19:39:11.278Z,2.63
2023-05-03T19:41:41.131Z,2.07
2023-05-03T19:44:09.386Z,1.60
2023-05-03T19:46:37.732Z,2.10
2023-05-03T19:49:06.327Z,0.73
2023-05-03T19:51:34.680Z,1.43
2023-05-03T19:54:03.767Z,5.00
2023-05-03T19:56:32.085Z,1.60
2023-05-03T19:59:01.722Z,0.87
2023-05-03T20:01:30.146Z,2.33
2023-05-03T20:03:58.964Z,3.37
2023-05-03T20:06:27.695Z,1.67
2023-05-03T20:08:56.017Z,1.93
2023-05-03T20:11:24.306Z,4.00
2023-05-03T20:13:52.617Z,2.80
2023-05-03T20:16:22.491Z,1.57
2023-05-03T20:18:50.780Z,1.93
2023-05-03T20:21:19.068Z,2.37
2023-05-03T20:23:49.205Z,1.20
2023-05-03T20:26:19.058Z,2.67
2023-05-03T20:28:47.548Z,2.57
2023-05-03T20:31:15.853Z,1.53
2023-05-03T20:33:45.582Z,4.73
2023-05-03T20:36:14.208Z,2.47
2023-05-03T20:38:42.484Z,1.23
2023-05-03T20:41:10.783Z,5.03
2023-05-03T20:43:39.106Z,3.27
2023-05-03T20:46:07.427Z,2.33
2023-05-03T20:48:35.867Z,1.93
2023-05-03T20:51:05.772Z,1.43
2023-05-03T20:53:34.087Z,3.87
2023-05-03T20:56:06.174Z,3.33
2023-05-03T20:58:34.507Z,1.97
2023-05-03T21:01:04.162Z,2.13
2023-05-03T21:03:32.710Z,2.30
2023-05-03T21:06:01.166Z,1.30
2023-05-03T21:08:30.845Z,2.03
2023-05-03T21:10:59.108Z,1.87
2023-05-03T21:13:27.417Z,1.87
2023-05-03T21:15:56.545Z,2.77
2023-05-03T21:18:25.016Z,3.20
2023-05-03T21:20:54.568Z,4.87
2023-05-03T21:23:22.852Z,3.73
2023-05-03T21:25:55.189Z,4.20
2023-05-03T21:28:24.426Z,4.63
2023-05-03T21:30:52.769Z,4.37
2023-05-03T21:33:21.383Z,2.63
2023-05-03T21:35:49.682Z,4.07
2023-05-03T21:38:18.000Z,3.73
2023-05-03T21:40:47.053Z,4.10
2023-05-03T21:43:16.758Z,4.60
2023-05-03T21:45:47.019Z,2.40
2023-05-03T21:48:15.314Z,4.00
2023-05-03T21:50:43.633Z,3.37
2023-05-03T21:53:11.942Z,3.57
2023-05-03T21:55:40.250Z,3.93
2023-05-03T21:58:08.560Z,4.97
2023-05-03T22:00:40.040Z,3.80
2023-05-03T22:03:08.508Z,2.67
2023-05-03T22:05:36.866Z,7.53
2023-05-03T22:08:05.859Z,1.97
2023-05-03T22:10:34.129Z,1.73
2023-05-03T22:13:02.436Z,4.90
2023-05-03T22:15:32.653Z,2.40
2023-05-03T22:18:02.345Z,2.30
2023-05-03T22:20:30.815Z,2.57
2023-05-03T22:22:59.128Z,7.20
2023-05-03T22:25:29.434Z,2.33
2023-05-03T22:27:59.152Z,2.23
2023-05-03T22:30:27.403Z,2.53
2023-05-03T22:32:55.741Z,3.10
2023-05-03T22:35:25.463Z,4.13
2023-05-03T22:37:53.734Z,1.53
2023-05-03T22:40:22.098Z,2.40
2023-05-03T22:42:50.401Z,1.53
2023-05-03T22:45:18.669Z,3.80
2023-05-03T22:47:47.020Z,1.70
2023-05-03T22:50:15.537Z,1.87
2023-05-03T22:52:45.208Z,1.30
2023-05-03T22:55:13.606Z,1.80
2023-05-03T22:57:41.903Z,1.10
2023-05-03T23:00:11.322Z,3.47
2023-05-03T23:02:39.699Z,2.13
2023-05-03T23:05:08.578Z,2.20
2023-05-03T23:07:36.858Z,3.00
2023-05-03T23:10:07.490Z,3.47
2023-05-03T23:12:36.388Z,2.97
2023-05-03T23:15:04.788Z,1.43
2023-05-03T23:17:33.728Z,1.30
2023-05-03T23:20:02.346Z,2.37
2023-05-03T23:22:30.900Z,1.40
2023-05-03T23:24:59.191Z,3.00
2023-05-03T23:27:28.904Z,1.53
2023-05-03T23:29:57.599Z,1.10
2023-05-03T23:32:26.408Z,2.83
2023-05-03T23:34:55.042Z,3.33
2023-05-03T23:37:23.387Z,1.60
2023-05-03T23:39:51.988Z,1.23
2023-05-03T23:42:20.352Z,1.73
2023-05-03T23:44:55.287Z,1.73
2023-05-03T23:47:24.466Z,1.80
2023-05-03T23:49:52.814Z,1.07
2023-05-03T23:52:21.373Z,2.20
2023-05-03T23:54:49.687Z,1.07
2023-05-03T23:57:18.207Z,1.87
2023-05-03T23:59:46.597Z,2.73
